Williston, North Dakota
Current Conditions -  °F | °C
As of 8:52 AM on Wednesday 22 Oct 2014 (Local Time) from KISN Reporting Station
Clear Clear  
Wind Chill: 43°   Ceiling: Unl
Heat Index: 48°   Visibility: 10mi
Dew Point: 41°   Wind: 10mph
Humidity: 77%   Direction: 210°SSW
Pressure: 29.81"   Gusts: NA
Location:  48.15°N, 103.62°W
Report Text: KISN 221352Z AUTO 21009KT 10SM CLR 09/05 A2981 RMK AO2 SLP099 T00890050
Loading
Personal Weather Stations






























Interactive Weather Map
Tropical Storm Tracking
New forecast layout! Learn more

10-Day Weather Forecast

Advertisements
Track Severe Weather on mobile